Macadam — FGF8461 — position and weather

sailwx.info

Track history (hours):
 
Tides and Currents Weather Stations Pressure Air Temp Water Temp Dewpoint Dewpoint Depression Visibility Wind Speed Wind Dir Waves Ship Positions

Macadam

Last reported at 2017-Aug-20 12:45 UTC. Time now 2017-Sep-23 02:23 UTC.
Position N 46°29' W 001°47'.
Warning: this ship's position is 33 days out of date.

Length 13 m.

Type: Sailing vessel. MMSI: 227761530.

Date/timePositionNaut miles runAvg speedWind from/ knotsBaromVisibWave heightAir tempDewpointWater temp
2017-Aug-20 12:45N 46°29' W 001°47'1 3.2
2017-Aug-20 12:31N 46°29' W 001°48'2 3.2
2017-Aug-20 12:00N 46°29' W 001°50'2 4.3
2017-Aug-20 11:30N 46°30' W 001°53'65 1.3
2017-Aug-18 08:51N 47°23' W 002°49'3 6.5
2017-Aug-18 08:26N 47°25' W 002°51'3 6.5
2017-Aug-18 07:58N 47°28' W 002°52'3 6.6
2017-Aug-18 07:30N 47°31' W 002°54'3 6.0
2017-Aug-18 06:57N 47°34' W 002°54'3 6.4
2017-Aug-18 06:30N 47°36' W 002°51'1 1.2
2017-Aug-18 05:47N 47°36' W 002°50'0 0.0
2017-Aug-18 05:29N 47°36' W 002°50'0 0.0
2017-Aug-18 04:56N 47°36' W 002°50'0 0.0
2017-Aug-18 04:29N 47°36' W 002°50'0 0.0
2017-Aug-18 03:56N 47°36' W 002°50'0 0.0
2017-Aug-18 03:29N 47°36' W 002°50'0 0.0
2017-Aug-18 02:56N 47°36' W 002°50'0 0.0
2017-Aug-18 02:26N 47°36' W 002°50'0 0.0
2017-Aug-18 01:59N 47°36' W 002°50'0 0.0
2017-Aug-18 01:29N 47°36' W 002°50'0 0.0
2017-Aug-18 00:59N 47°36' W 002°50'0 0.0
2017-Aug-18 00:29N 47°36' W 002°50'0 0.0
2017-Aug-17 23:59N 47°36' W 002°50'0 0.0
2017-Aug-17 23:26N 47°36' W 002°50'0 0.0
2017-Aug-17 22:59N 47°36' W 002°50'0 0.0
2017-Aug-17 22:29N 47°36' W 002°50'0 0.0
2017-Aug-17 21:54N 47°36' W 002°50'0 0.0
2017-Aug-17 21:29N 47°36' W 002°50'0 0.0
2017-Aug-17 20:59N 47°36' W 002°50'0 0.0
2017-Aug-17 20:28N 47°36' W 002°50'0 0.0
2017-Aug-17 20:00N 47°36' W 002°50'0 0.0
2017-Aug-17 17:51N 47°36' W 002°50'0 0.0
2017-Aug-17 15:06N 47°36' W 002°50'0 0.0
2017-Aug-17 15:00N 47°36' W 002°50'1 1.4
2017-Aug-17 14:30N 47°37' W 002°49'2 3.8
2017-Aug-17 14:00N 47°38' W 002°47'1 2.7
2017-Aug-17 13:30N 47°39' W 002°46'0 0.0
2017-Aug-16 21:24N 47°39' W 002°45'0 0.0
2017-Aug-16 21:00N 47°39' W 002°45'0 0.0
2017-Aug-16 20:30N 47°39' W 002°45'0 0.0
2017-Aug-16 20:00N 47°39' W 002°45'0 0.0
2017-Aug-16 19:30N 47°39' W 002°45'0 0.0
2017-Aug-16 18:57N 47°39' W 002°45'0 0.0
2017-Aug-16 18:30N 47°39' W 002°45'0 0.0
2017-Aug-16 18:00N 47°39' W 002°45'0 0.0
2017-Aug-16 17:30N 47°39' W 002°45'0 0.0
2017-Aug-16 17:00N 47°39' W 002°45'0 0.0
2017-Aug-16 14:16N 47°39' W 002°45'0 0.1
2017-Aug-16 13:59N 47°39' W 002°45'1 2.9
2017-Aug-16 13:30N 47°38' W 002°46'2 3.7
2017-Aug-16 12:59N 47°37' W 002°48'2 4.0
2017-Aug-16 12:29N 47°36' W 002°51'3 3.4
2017-Aug-16 11:43N 47°34' W 002°54'4 5.9
2017-Aug-16 11:02N 47°31' W 002°56'3 6.8
2017-Aug-16 10:36N 47°28' W 002°59'1 6.9
2017-Aug-16 10:30N 47°28' W 003°00'12 0.7
2017-Aug-15 17:11N 47°23' W 003°16'1 6.3
2017-Aug-15 17:00N 47°24' W 003°17'3 6.9
2017-Aug-15 16:30N 47°27' W 003°20'3 6.8
2017-Aug-15 16:00N 47°30' W 003°23'3 6.8
2017-Aug-15 15:30N 47°32' W 003°26'3 6.9
2017-Aug-15 15:00N 47°35' W 003°29'  
Track history (hours):
 
Tides and Currents Weather Stations Pressure Air Temp Water Temp Dewpoint Dewpoint Depression Visibility Wind Speed Wind Dir Waves Ship Positions

Macadam

Last reported at 2017-Aug-20 12:45 UTC. Time now 2017-Sep-23 02:23 UTC.
Position N 46°29' W 001°47'.
Warning: this ship's position is 33 days out of date.

Length 13 m.

Type: Sailing vessel. MMSI: 227761530.

Date/timePositionNaut miles runAvg speedWind from/ knotsBaromVisibWave heightAir tempDewpointWater temp
2017-Aug-20 12:45N 46°29' W 001°47'1 3.2
2017-Aug-20 12:31N 46°29' W 001°48'2 3.2
2017-Aug-20 12:00N 46°29' W 001°50'2 4.3
2017-Aug-20 11:30N 46°30' W 001°53'65 1.3
2017-Aug-18 08:51N 47°23' W 002°49'3 6.5
2017-Aug-18 08:26N 47°25' W 002°51'3 6.5
2017-Aug-18 07:58N 47°28' W 002°52'3 6.6
2017-Aug-18 07:30N 47°31' W 002°54'3 6.0
2017-Aug-18 06:57N 47°34' W 002°54'3 6.4
2017-Aug-18 06:30N 47°36' W 002°51'1 1.2
2017-Aug-18 05:47N 47°36' W 002°50'0 0.0
2017-Aug-18 05:29N 47°36' W 002°50'0 0.0
2017-Aug-18 04:56N 47°36' W 002°50'0 0.0
2017-Aug-18 04:29N 47°36' W 002°50'0 0.0
2017-Aug-18 03:56N 47°36' W 002°50'0 0.0
2017-Aug-18 03:29N 47°36' W 002°50'0 0.0
2017-Aug-18 02:56N 47°36' W 002°50'0 0.0
2017-Aug-18 02:26N 47°36' W 002°50'0 0.0
2017-Aug-18 01:59N 47°36' W 002°50'0 0.0
2017-Aug-18 01:29N 47°36' W 002°50'0 0.0
2017-Aug-18 00:59N 47°36' W 002°50'0 0.0
2017-Aug-18 00:29N 47°36' W 002°50'0 0.0
2017-Aug-17 23:59N 47°36' W 002°50'0 0.0
2017-Aug-17 23:26N 47°36' W 002°50'0 0.0
2017-Aug-17 22:59N 47°36' W 002°50'0 0.0
2017-Aug-17 22:29N 47°36' W 002°50'0 0.0
2017-Aug-17 21:54N 47°36' W 002°50'0 0.0
2017-Aug-17 21:29N 47°36' W 002°50'0 0.0
2017-Aug-17 20:59N 47°36' W 002°50'0 0.0
2017-Aug-17 20:28N 47°36' W 002°50'0 0.0
2017-Aug-17 20:00N 47°36' W 002°50'0 0.0
2017-Aug-17 17:51N 47°36' W 002°50'0 0.0
2017-Aug-17 15:06N 47°36' W 002°50'0 0.0
2017-Aug-17 15:00N 47°36' W 002°50'1 1.4
2017-Aug-17 14:30N 47°37' W 002°49'2 3.8
2017-Aug-17 14:00N 47°38' W 002°47'1 2.7
2017-Aug-17 13:30N 47°39' W 002°46'0 0.0
2017-Aug-16 21:24N 47°39' W 002°45'0 0.0
2017-Aug-16 21:00N 47°39' W 002°45'0 0.0
2017-Aug-16 20:30N 47°39' W 002°45'0 0.0
2017-Aug-16 20:00N 47°39' W 002°45'0 0.0
2017-Aug-16 19:30N 47°39' W 002°45'0 0.0
2017-Aug-16 18:57N 47°39' W 002°45'0 0.0
2017-Aug-16 18:30N 47°39' W 002°45'0 0.0
2017-Aug-16 18:00N 47°39' W 002°45'0 0.0
2017-Aug-16 17:30N 47°39' W 002°45'0 0.0
2017-Aug-16 17:00N 47°39' W 002°45'0 0.0
2017-Aug-16 14:16N 47°39' W 002°45'0 0.1
2017-Aug-16 13:59N 47°39' W 002°45'1 2.9
2017-Aug-16 13:30N 47°38' W 002°46'2 3.7
2017-Aug-16 12:59N 47°37' W 002°48'2 4.0
2017-Aug-16 12:29N 47°36' W 002°51'3 3.4
2017-Aug-16 11:43N 47°34' W 002°54'4 5.9
2017-Aug-16 11:02N 47°31' W 002°56'3 6.8
2017-Aug-16 10:36N 47°28' W 002°59'1 6.9
2017-Aug-16 10:30N 47°28' W 003°00'12 0.7
2017-Aug-15 17:11N 47°23' W 003°16'1 6.3
2017-Aug-15 17:00N 47°24' W 003°17'3 6.9
2017-Aug-15 16:30N 47°27' W 003°20'3 6.8
2017-Aug-15 16:00N 47°30' W 003°23'3 6.8
2017-Aug-15 15:30N 47°32' W 003°26'3 6.9
2017-Aug-15 15:00N 47°35' W 003°29'  

Dump ship's entire track history